createdAt,value
2023-01-13T00:00:03.602Z,969.66
2023-01-13T00:01:03.444Z,969.80
2023-01-13T00:02:03.626Z,969.63
2023-01-13T00:03:03.446Z,969.60
2023-01-13T00:04:03.455Z,969.77
2023-01-13T00:05:03.681Z,969.57
2023-01-13T00:06:03.547Z,969.63
2023-01-13T00:07:03.445Z,969.60
2023-01-13T00:08:03.458Z,969.63
2023-01-13T00:09:03.660Z,969.63
2023-01-13T00:10:03.761Z,969.66
2023-01-13T00:11:03.475Z,969.49
2023-01-13T00:12:03.417Z,969.72
2023-01-13T00:13:03.359Z,969.52
2023-01-13T00:14:03.379Z,969.60
2023-01-13T00:15:03.476Z,969.46
2023-01-13T00:16:03.361Z,969.49
2023-01-13T00:17:03.435Z,969.57
2023-01-13T00:18:03.249Z,969.34
2023-01-13T00:19:03.341Z,969.57
2023-01-13T00:20:03.303Z,969.48
2023-01-13T00:21:03.295Z,969.74
2023-01-13T00:22:03.258Z,969.51
2023-01-13T00:23:03.187Z,969.40
2023-01-13T00:24:03.201Z,969.46
2023-01-13T00:25:03.308Z,969.74
2023-01-13T00:26:03.361Z,969.71
2023-01-13T00:27:03.240Z,969.65
2023-01-13T00:28:03.313Z,969.57
2023-01-13T00:29:03.212Z,969.77
2023-01-13T00:30:03.089Z,969.71
2023-01-13T00:31:03.535Z,969.74
2023-01-13T00:32:03.965Z,969.59
2023-01-13T00:33:03.947Z,969.71
2023-01-13T00:34:03.915Z,969.62
2023-01-13T00:35:04.043Z,969.68
2023-01-13T00:36:03.827Z,969.60
2023-01-13T00:37:03.824Z,969.60
2023-01-13T00:38:03.715Z,969.54
2023-01-13T00:39:03.653Z,969.65
2023-01-13T00:40:03.701Z,969.60
2023-01-13T00:41:03.629Z,969.57
2023-01-13T00:42:03.635Z,969.65
2023-01-13T00:43:03.567Z,969.54
2023-01-13T00:44:03.599Z,969.57
2023-01-13T00:45:03.672Z,969.54
2023-01-13T00:46:03.661Z,969.48
2023-01-13T00:47:03.499Z,969.43
2023-01-13T00:48:03.483Z,969.65
2023-01-13T00:49:03.503Z,969.54
2023-01-13T00:50:03.479Z,969.51
2023-01-13T00:51:03.422Z,969.60
2023-01-13T00:52:03.446Z,969.48
2023-01-13T00:53:03.321Z,969.51
2023-01-13T00:54:03.390Z,969.60
2023-01-13T00:55:03.390Z,969.57
2023-01-13T00:56:03.263Z,969.43
2023-01-13T00:57:03.309Z,969.37
2023-01-13T00:58:03.377Z,969.46
2023-01-13T00:59:03.263Z,969.31
2023-01-13T01:00:03.353Z,969.46
2023-01-13T01:01:03.473Z,969.43
2023-01-13T01:02:03.471Z,969.37
2023-01-13T01:03:03.255Z,969.48
2023-01-13T01:04:03.199Z,969.48
2023-01-13T01:05:03.157Z,969.51
2023-01-13T01:06:03.154Z,969.48
2023-01-13T01:07:03.049Z,969.43
2023-01-13T01:08:03.121Z,969.26
2023-01-13T01:09:03.999Z,969.29
2023-01-13T01:10:04.304Z,969.34
2023-01-13T01:11:03.041Z,969.31
2023-01-13T01:12:03.028Z,969.43
2023-01-13T01:13:04.025Z,969.37
2023-01-13T01:14:03.034Z,969.29
2023-01-13T01:15:03.077Z,969.40
2023-01-13T01:16:03.129Z,969.31
2023-01-13T01:17:03.119Z,969.31
2023-01-13T01:18:03.201Z,969.43
2023-01-13T01:19:03.117Z,969.23
2023-01-13T01:20:03.191Z,969.17
2023-01-13T01:21:03.179Z,969.17
2023-01-13T01:22:03.278Z,969.20
2023-01-13T01:23:03.346Z,969.37
2023-01-13T01:24:03.262Z,969.34
2023-01-13T01:25:03.300Z,969.15
2023-01-13T01:26:03.149Z,968.98
2023-01-13T01:27:03.243Z,969.09
2023-01-13T01:28:03.200Z,969.15
2023-01-13T01:29:03.019Z,969.12
2023-01-13T01:30:04.158Z,969.01
2023-01-13T01:31:04.039Z,969.15
2023-01-13T01:32:03.999Z,969.12
2023-01-13T01:33:03.103Z,969.06
2023-01-13T01:34:03.973Z,968.98
2023-01-13T01:35:04.030Z,969.23
2023-01-13T01:36:03.871Z,969.06
2023-01-13T01:37:03.889Z,969.04
2023-01-13T01:38:03.898Z,969.06
2023-01-13T01:39:03.858Z,969.18
2023-01-13T01:40:03.971Z,969.01
2023-01-13T01:41:03.864Z,969.01
2023-01-13T01:42:03.801Z,969.01
2023-01-13T01:43:03.752Z,968.98
2023-01-13T01:44:03.749Z,968.95
2023-01-13T01:45:03.755Z,969.01
2023-01-13T01:46:03.654Z,969.01
2023-01-13T01:47:03.861Z,968.92
2023-01-13T01:48:03.613Z,969.06
2023-01-13T01:49:03.663Z,969.01
2023-01-13T01:50:03.846Z,968.89
2023-01-13T01:51:03.525Z,969.01
2023-01-13T01:52:03.446Z,969.01
2023-01-13T01:53:03.351Z,968.98
2023-01-13T01:54:03.328Z,968.98
2023-01-13T01:55:03.549Z,969.01
2023-01-13T01:56:03.463Z,968.92
2023-01-13T01:57:03.369Z,968.87
2023-01-13T01:58:03.385Z,968.84
2023-01-13T01:59:03.406Z,968.92
2023-01-13T02:00:03.452Z,968.81
2023-01-13T02:01:03.732Z,968.87
2023-01-13T02:02:03.629Z,968.95
2023-01-13T02:03:03.292Z,968.95
2023-01-13T02:04:03.304Z,968.87
2023-01-13T02:05:03.247Z,968.81
2023-01-13T02:06:03.156Z,968.95
2023-01-13T02:07:03.168Z,968.84
2023-01-13T02:08:03.267Z,968.92
2023-01-13T02:09:03.135Z,968.90
2023-01-13T02:10:03.463Z,968.84
2023-01-13T02:11:03.382Z,968.92
2023-01-13T02:12:03.380Z,968.92
2023-01-13T02:13:03.339Z,969.04
2023-01-13T02:14:03.244Z,968.92
2023-01-13T02:15:03.469Z,968.87
2023-01-13T02:16:03.588Z,968.87
2023-01-13T02:17:03.508Z,968.79
2023-01-13T02:18:03.539Z,968.96
2023-01-13T02:19:03.442Z,968.98
2023-01-13T02:20:03.398Z,968.76
2023-01-13T02:21:03.325Z,968.98
2023-01-13T02:22:03.232Z,969.01
2023-01-13T02:23:03.194Z,968.81
2023-01-13T02:24:03.186Z,968.93
2023-01-13T02:25:03.128Z,968.84
2023-01-13T02:26:04.142Z,968.87
2023-01-13T02:27:04.138Z,968.95
2023-01-13T02:28:04.168Z,968.84
2023-01-13T02:29:03.864Z,968.95
2023-01-13T02:30:03.927Z,968.90
2023-01-13T02:31:03.918Z,968.90
2023-01-13T02:32:04.007Z,968.78
2023-01-13T02:33:03.849Z,968.78
2023-01-13T02:34:03.785Z,968.87
2023-01-13T02:35:03.940Z,968.81
2023-01-13T02:36:03.750Z,968.90
2023-01-13T02:37:03.686Z,968.81
2023-01-13T02:38:03.733Z,968.71
2023-01-13T02:39:03.664Z,968.65
2023-01-13T02:40:03.610Z,968.75
2023-01-13T02:41:03.525Z,968.65
2023-01-13T02:42:03.489Z,968.71
2023-01-13T02:43:03.607Z,968.75
2023-01-13T02:44:03.502Z,968.62
2023-01-13T02:45:03.527Z,968.73
2023-01-13T02:46:03.509Z,968.71
2023-01-13T02:47:03.245Z,968.90
2023-01-13T02:48:03.277Z,969.01
2023-01-13T02:49:03.319Z,968.75
2023-01-13T02:50:03.181Z,968.75
2023-01-13T02:51:03.118Z,968.71
2023-01-13T02:52:03.161Z,968.75
2023-01-13T02:53:03.997Z,968.90
2023-01-13T02:54:03.970Z,968.81
2023-01-13T02:55:03.896Z,968.81
2023-01-13T02:56:03.786Z,968.84
2023-01-13T02:57:03.764Z,968.76
2023-01-13T02:58:03.683Z,968.87
2023-01-13T02:59:03.706Z,968.78
2023-01-13T03:00:03.633Z,968.84
2023-01-13T03:01:03.862Z,968.76
2023-01-13T03:02:04.077Z,968.68
2023-01-13T03:03:03.477Z,968.81
2023-01-13T03:04:03.508Z,968.76
2023-01-13T03:05:03.427Z,968.60
2023-01-13T03:06:03.355Z,968.81
2023-01-13T03:07:03.397Z,968.71
2023-01-13T03:08:03.439Z,968.81
2023-01-13T03:09:03.477Z,968.68
2023-01-13T03:10:03.436Z,968.76
2023-01-13T03:11:03.523Z,968.73
2023-01-13T03:12:03.311Z,968.71
2023-01-13T03:13:03.379Z,968.65
2023-01-13T03:14:03.269Z,968.57
2023-01-13T03:15:03.391Z,968.68
2023-01-13T03:16:03.267Z,968.84
2023-01-13T03:17:03.258Z,968.76
2023-01-13T03:18:03.208Z,968.60
2023-01-13T03:19:03.078Z,968.48
2023-01-13T03:20:03.234Z,968.73
2023-01-13T03:21:03.177Z,968.63
2023-01-13T03:22:03.085Z,968.65
2023-01-13T03:23:02.966Z,968.51
2023-01-13T03:24:02.924Z,968.63
2023-01-13T03:25:02.968Z,968.54
2023-01-13T03:26:03.054Z,968.51
2023-01-13T03:27:02.933Z,968.49
2023-01-13T03:28:03.865Z,968.49
2023-01-13T03:29:03.941Z,968.49
2023-01-13T03:30:03.957Z,968.60
2023-01-13T03:31:03.930Z,968.55
2023-01-13T03:32:03.711Z,968.55
2023-01-13T03:33:03.742Z,968.52
2023-01-13T03:34:03.588Z,968.46
2023-01-13T03:35:03.673Z,968.52
2023-01-13T03:36:03.573Z,968.58
2023-01-13T03:37:03.611Z,968.55
2023-01-13T03:38:03.332Z,968.44
2023-01-13T03:39:03.260Z,968.55
2023-01-13T03:40:03.296Z,968.47
2023-01-13T03:41:03.111Z,968.61
2023-01-13T03:42:03.069Z,968.58
2023-01-13T03:43:03.047Z,968.61
2023-01-13T03:44:02.895Z,968.47
2023-01-13T03:45:02.953Z,968.44
2023-01-13T03:46:04.085Z,968.47
2023-01-13T03:47:03.831Z,968.61
2023-01-13T03:48:03.864Z,968.56
2023-01-13T03:49:02.938Z,968.39
2023-01-13T03:50:03.877Z,968.36
2023-01-13T03:51:03.086Z,968.42
2023-01-13T03:52:02.977Z,968.28
2023-01-13T03:53:03.026Z,968.39
2023-01-13T03:54:02.911Z,968.42
2023-01-13T03:55:02.935Z,968.42
2023-01-13T03:56:03.851Z,968.50
2023-01-13T03:57:03.726Z,968.30
2023-01-13T03:58:03.882Z,968.48
2023-01-13T03:59:03.821Z,968.30
2023-01-13T04:00:04.000Z,968.53
2023-01-13T04:01:04.008Z,968.39
2023-01-13T04:02:04.086Z,968.42
2023-01-13T04:03:03.620Z,968.36
2023-01-13T04:04:03.842Z,968.56
2023-01-13T04:05:03.680Z,968.47
2023-01-13T04:06:03.507Z,968.53
2023-01-13T04:07:03.607Z,968.30
2023-01-13T04:08:03.539Z,968.42
2023-01-13T04:09:03.439Z,968.44
2023-01-13T04:10:03.718Z,968.39
2023-01-13T04:11:03.592Z,968.44
2023-01-13T04:12:03.587Z,968.50
2023-01-13T04:13:03.601Z,968.47
2023-01-13T04:14:03.606Z,968.44
2023-01-13T04:15:03.494Z,968.47
2023-01-13T04:16:03.872Z,968.36
2023-01-13T04:17:03.847Z,968.56
2023-01-13T04:18:03.735Z,968.33
2023-01-13T04:19:03.724Z,968.44
2023-01-13T04:20:03.852Z,968.50
2023-01-13T04:21:03.831Z,968.50
2023-01-13T04:22:03.693Z,968.56
2023-01-13T04:23:03.711Z,968.39
2023-01-13T04:24:03.598Z,968.58
2023-01-13T04:25:03.527Z,968.47
2023-01-13T04:26:03.498Z,968.47
2023-01-13T04:27:03.754Z,968.47
2023-01-13T04:28:03.711Z,968.50
2023-01-13T04:29:03.681Z,968.50
2023-01-13T04:30:03.624Z,968.55
2023-01-13T04:31:03.727Z,968.41
2023-01-13T04:32:03.693Z,968.52
2023-01-13T04:33:03.671Z,968.47
2023-01-13T04:34:03.711Z,968.52
2023-01-13T04:35:03.591Z,968.50
2023-01-13T04:36:03.521Z,968.41
2023-01-13T04:37:03.632Z,968.33
2023-01-13T04:38:03.603Z,968.44
2023-01-13T04:39:03.576Z,968.30
2023-01-13T04:40:03.470Z,968.38
2023-01-13T04:41:03.375Z,968.47
2023-01-13T04:42:03.499Z,968.38
2023-01-13T04:43:03.336Z,968.44
2023-01-13T04:44:03.327Z,968.44
2023-01-13T04:45:03.303Z,968.44
2023-01-13T04:46:03.336Z,968.44
2023-01-13T04:47:03.200Z,968.46
2023-01-13T04:48:03.213Z,968.24
2023-01-13T04:49:03.062Z,968.26
2023-01-13T04:50:03.055Z,968.43
2023-01-13T04:51:03.039Z,968.23
2023-01-13T04:52:03.060Z,968.32
2023-01-13T04:53:02.991Z,968.21
2023-01-13T04:54:02.884Z,968.35
2023-01-13T04:55:02.998Z,968.23
2023-01-13T04:56:02.978Z,968.20
2023-01-13T04:57:03.922Z,968.35
2023-01-13T04:58:03.792Z,968.26
2023-01-13T04:59:03.924Z,968.06
2023-01-13T05:00:03.830Z,968.34
2023-01-13T05:01:03.777Z,968.15
2023-01-13T05:02:03.825Z,968.06
2023-01-13T05:03:03.693Z,968.12
2023-01-13T05:04:03.554Z,968.09
2023-01-13T05:05:03.689Z,968.09
2023-01-13T05:06:03.494Z,968.14
2023-01-13T05:07:03.542Z,968.12
2023-01-13T05:08:03.484Z,968.09
2023-01-13T05:09:03.502Z,968.09
2023-01-13T05:10:03.394Z,968.00
2023-01-13T05:11:03.384Z,968.11
2023-01-13T05:12:03.345Z,968.06
2023-01-13T05:13:03.232Z,968.09
2023-01-13T05:14:03.208Z,968.11
2023-01-13T05:15:03.459Z,967.94
2023-01-13T05:16:07.051Z,968.03
2023-01-13T05:17:03.553Z,968.06
2023-01-13T05:18:03.377Z,968.11
2023-01-13T05:19:03.239Z,967.94
2023-01-13T05:20:03.252Z,967.97
2023-01-13T05:21:03.176Z,968.28
2023-01-13T05:22:03.536Z,967.91
2023-01-13T05:23:03.409Z,968.03
2023-01-13T05:24:03.384Z,968.09
2023-01-13T05:25:03.812Z,968.14
2023-01-13T05:26:03.494Z,968.09
2023-01-13T05:27:03.374Z,968.11
2023-01-13T05:28:03.358Z,968.14
2023-01-13T05:29:03.301Z,968.26
2023-01-13T05:30:03.255Z,968.31
2023-01-13T05:31:03.362Z,968.20
2023-01-13T05:32:03.213Z,968.11
2023-01-13T05:33:03.297Z,968.00
2023-01-13T05:34:03.191Z,968.03
2023-01-13T05:35:03.129Z,968.11
2023-01-13T05:36:03.157Z,968.09
2023-01-13T05:37:03.142Z,968.11
2023-01-13T05:38:03.016Z,968.17
2023-01-13T05:39:03.116Z,968.31
2023-01-13T05:40:03.053Z,968.23
2023-01-13T05:41:03.018Z,968.28
2023-01-13T05:42:03.077Z,968.17
2023-01-13T05:43:03.064Z,968.28
2023-01-13T05:44:02.969Z,968.17
2023-01-13T05:45:03.979Z,968.14
2023-01-13T05:46:04.092Z,968.17
2023-01-13T05:47:03.749Z,968.14
2023-01-13T05:48:03.733Z,968.14
2023-01-13T05:49:03.725Z,968.22
2023-01-13T05:50:03.631Z,968.17
2023-01-13T05:51:03.651Z,968.17
2023-01-13T05:52:03.518Z,968.20
2023-01-13T05:53:03.517Z,968.08
2023-01-13T05:54:03.557Z,968.08
2023-01-13T05:55:03.423Z,968.11
2023-01-13T05:56:03.404Z,968.14
2023-01-13T05:57:03.343Z,968.03
2023-01-13T05:58:03.254Z,968.11
2023-01-13T05:59:03.259Z,968.11
2023-01-13T06:00:03.115Z,968.05
2023-01-13T06:01:03.632Z,968.11
2023-01-13T06:02:03.615Z,968.11
2023-01-13T06:03:03.754Z,968.11
2023-01-13T06:04:03.674Z,968.20
2023-01-13T06:05:03.616Z,968.17
2023-01-13T06:06:03.567Z,968.08
2023-01-13T06:07:03.536Z,968.06
2023-01-13T06:08:03.521Z,968.20
2023-01-13T06:09:03.457Z,968.20
2023-01-13T06:10:03.470Z,968.20
2023-01-13T06:11:03.291Z,968.11
2023-01-13T06:12:03.340Z,968.28
2023-01-13T06:13:03.376Z,968.20
2023-01-13T06:14:03.330Z,968.23
2023-01-13T06:15:03.374Z,968.17
2023-01-13T06:16:03.443Z,968.28
2023-01-13T06:17:03.201Z,968.28
2023-01-13T06:18:03.138Z,968.20
2023-01-13T06:19:03.110Z,968.11
2023-01-13T06:20:03.106Z,968.25
2023-01-13T06:21:03.114Z,968.17
2023-01-13T06:22:03.062Z,968.14
2023-01-13T06:23:03.024Z,968.23
2023-01-13T06:24:03.689Z,968.20
2023-01-13T06:25:03.663Z,968.14
2023-01-13T06:26:03.706Z,968.17
2023-01-13T06:27:03.851Z,968.28
2023-01-13T06:28:03.688Z,968.11
2023-01-13T06:29:03.711Z,968.23
2023-01-13T06:30:03.759Z,968.23
2023-01-13T06:31:04.062Z,968.11
2023-01-13T06:32:03.723Z,968.14
2023-01-13T06:33:03.529Z,968.23
2023-01-13T06:34:03.684Z,968.14
2023-01-13T06:35:05.879Z,968.14
2023-01-13T06:36:03.515Z,968.14
2023-01-13T06:37:03.358Z,968.20
2023-01-13T06:38:03.278Z,968.11
2023-01-13T06:39:03.519Z,968.22
2023-01-13T06:40:03.477Z,968.17
2023-01-13T06:41:03.380Z,968.20
2023-01-13T06:42:03.498Z,968.20
2023-01-13T06:43:03.370Z,968.22
2023-01-13T06:44:03.286Z,968.14
2023-01-13T06:45:03.324Z,968.28
2023-01-13T06:46:03.413Z,968.05
2023-01-13T06:47:03.161Z,968.08
2023-01-13T06:48:03.105Z,968.17
2023-01-13T06:49:03.001Z,968.05
2023-01-13T06:50:03.015Z,968.08
2023-01-13T06:51:02.906Z,968.14
2023-01-13T06:52:03.000Z,968.06
2023-01-13T06:53:02.887Z,967.91
2023-01-13T06:54:03.831Z,968.03
2023-01-13T06:55:03.807Z,968.03
2023-01-13T06:56:03.620Z,968.06
2023-01-13T06:57:03.931Z,967.97
2023-01-13T06:58:03.712Z,967.94
2023-01-13T06:59:03.882Z,968.03
2023-01-13T07:00:03.971Z,967.97
2023-01-13T07:01:03.877Z,968.20
2023-01-13T07:02:04.031Z,967.97
2023-01-13T07:03:07.132Z,968.00
2023-01-13T07:04:03.578Z,968.17
2023-01-13T07:05:03.495Z,968.08
2023-01-13T07:06:03.514Z,968.00
2023-01-13T07:07:03.367Z,968.11
2023-01-13T07:08:03.378Z,968.09
2023-01-13T07:09:04.246Z,968.08
2023-01-13T07:10:03.372Z,968.08
2023-01-13T07:11:03.283Z,968.00
2023-01-13T07:12:03.276Z,968.03
2023-01-13T07:13:03.181Z,968.03
2023-01-13T07:14:03.194Z,967.94
2023-01-13T07:15:03.196Z,968.05
2023-01-13T07:16:03.394Z,968.08
2023-01-13T07:17:03.127Z,968.17
2023-01-13T07:18:03.093Z,968.22
2023-01-13T07:19:03.224Z,968.00
2023-01-13T07:20:03.125Z,968.14
2023-01-13T07:21:03.003Z,968.03
2023-01-13T07:22:03.751Z,968.08
2023-01-13T07:23:03.439Z,968.17
2023-01-13T07:24:03.375Z,968.11
2023-01-13T07:25:03.473Z,968.02
2023-01-13T07:26:03.342Z,967.94
2023-01-13T07:27:03.367Z,968.17
2023-01-13T07:28:03.291Z,968.08
2023-01-13T07:29:03.217Z,968.25
2023-01-13T07:30:03.149Z,968.11
2023-01-13T07:31:03.002Z,968.37
2023-01-13T07:32:03.128Z,968.31
2023-01-13T07:33:02.891Z,968.51
2023-01-13T07:34:03.908Z,968.65
2023-01-13T07:35:03.843Z,968.78
2023-01-13T07:36:03.753Z,968.84
2023-01-13T07:37:03.667Z,968.87
2023-01-13T07:38:03.714Z,968.78
2023-01-13T07:39:03.547Z,969.04
2023-01-13T07:40:03.624Z,968.99
2023-01-13T07:41:03.459Z,968.99
2023-01-13T07:42:03.458Z,969.11
2023-01-13T07:43:03.306Z,969.35
2023-01-13T07:44:03.241Z,969.63
2023-01-13T07:45:03.115Z,969.53
2023-01-13T07:46:03.625Z,969.45
2023-01-13T07:47:03.318Z,969.45
2023-01-13T07:48:03.378Z,969.45
2023-01-13T07:49:03.376Z,969.34
2023-01-13T07:50:03.461Z,969.46
2023-01-13T07:51:03.400Z,969.38
2023-01-13T07:52:03.292Z,969.47
2023-01-13T07:53:03.226Z,969.47
2023-01-13T07:54:03.198Z,969.56
2023-01-13T07:55:03.342Z,969.42
2023-01-13T07:56:03.209Z,969.54
2023-01-13T07:57:03.114Z,969.54
2023-01-13T07:58:03.046Z,969.51
2023-01-13T07:59:03.037Z,969.60
2023-01-13T08:00:03.011Z,969.51
2023-01-13T08:01:03.236Z,969.66
2023-01-13T08:02:03.367Z,969.55
2023-01-13T08:03:03.977Z,969.52
2023-01-13T08:04:03.880Z,969.58
2023-01-13T08:05:03.840Z,969.61
2023-01-13T08:06:03.665Z,969.58
2023-01-13T08:07:03.928Z,969.55
2023-01-13T08:08:03.562Z,969.50
2023-01-13T08:09:03.598Z,969.50
2023-01-13T08:10:03.621Z,969.64
2023-01-13T08:11:03.543Z,969.44
2023-01-13T08:12:03.392Z,969.58
2023-01-13T08:13:03.383Z,969.44
2023-01-13T08:14:03.305Z,969.45
2023-01-13T08:15:03.289Z,969.39
2023-01-13T08:16:03.104Z,969.42
2023-01-13T08:17:03.128Z,969.42
2023-01-13T08:18:03.013Z,969.53
2023-01-13T08:19:03.190Z,969.45
2023-01-13T08:20:03.070Z,969.25
2023-01-13T08:21:02.974Z,969.42
2023-01-13T08:22:03.871Z,969.42
2023-01-13T08:23:07.413Z,969.59
2023-01-13T08:24:03.722Z,969.39
2023-01-13T08:25:03.869Z,969.51
2023-01-13T08:26:03.715Z,969.42
2023-01-13T08:27:03.626Z,969.54
2023-01-13T08:28:03.437Z,969.31
2023-01-13T08:29:03.488Z,969.28
2023-01-13T08:30:03.464Z,969.37
2023-01-13T08:31:03.508Z,969.42
2023-01-13T08:32:03.208Z,969.43
2023-01-13T08:33:03.162Z,969.40
2023-01-13T08:34:03.153Z,969.51
2023-01-13T08:35:03.244Z,969.51
2023-01-13T08:36:03.588Z,969.46
2023-01-13T08:37:03.579Z,969.46
2023-01-13T08:38:03.421Z,969.43
2023-01-13T08:39:03.355Z,969.46
2023-01-13T08:40:03.496Z,969.46
2023-01-13T08:41:03.269Z,969.60
2023-01-13T08:42:03.212Z,969.51
2023-01-13T08:43:03.160Z,969.65
2023-01-13T08:44:02.994Z,969.80
2023-01-13T08:45:03.001Z,969.57
2023-01-13T08:46:03.067Z,969.63
2023-01-13T08:47:03.002Z,969.57
2023-01-13T08:48:02.952Z,969.80
2023-01-13T08:49:03.859Z,969.66
2023-01-13T08:50:03.982Z,969.77
2023-01-13T08:51:03.973Z,969.68
2023-01-13T08:52:03.832Z,969.80
2023-01-13T08:53:03.682Z,969.54
2023-01-13T08:54:03.724Z,969.51
2023-01-13T08:55:03.595Z,969.57
2023-01-13T08:56:03.603Z,969.68
2023-01-13T08:57:03.842Z,969.68
2023-01-13T08:58:16.460Z,969.60
2023-01-13T08:59:03.330Z,969.49
2023-01-13T09:00:03.317Z,969.60
2023-01-13T09:01:03.354Z,969.51
2023-01-13T09:02:03.293Z,969.57
2023-01-13T09:03:03.029Z,969.48
2023-01-13T09:04:03.177Z,969.43
2023-01-13T09:05:03.098Z,969.28
2023-01-13T09:06:03.885Z,969.34
2023-01-13T09:07:03.810Z,969.40
2023-01-13T09:08:03.683Z,969.20
2023-01-13T09:09:03.636Z,969.40
2023-01-13T09:10:03.587Z,969.25
2023-01-13T09:11:03.608Z,969.34
2023-01-13T09:12:03.499Z,969.34
2023-01-13T09:13:03.563Z,969.34
2023-01-13T09:14:03.935Z,969.23
2023-01-13T09:15:03.567Z,969.25
2023-01-13T09:16:03.499Z,968.97
2023-01-13T09:17:03.458Z,969.06
2023-01-13T09:18:03.739Z,969.00
2023-01-13T09:19:03.440Z,969.03
2023-01-13T09:20:03.343Z,969.14
2023-01-13T09:21:03.283Z,969.06
2023-01-13T09:22:03.183Z,969.14
2023-01-13T09:23:03.139Z,969.05
2023-01-13T09:24:03.060Z,969.25
2023-01-13T09:25:03.795Z,969.14
2023-01-13T09:26:03.460Z,969.22
2023-01-13T09:27:03.576Z,969.25
2023-01-13T09:28:03.510Z,969.20
2023-01-13T09:29:03.566Z,969.31
2023-01-13T09:30:03.531Z,969.34
2023-01-13T09:31:03.506Z,969.54
2023-01-13T09:32:03.485Z,969.56
2023-01-13T09:33:03.365Z,969.59
2023-01-13T09:34:03.491Z,969.40
2023-01-13T09:35:03.547Z,969.48
2023-01-13T09:36:03.315Z,969.54
2023-01-13T09:37:03.209Z,969.40
2023-01-13T09:38:03.241Z,969.45
2023-01-13T09:39:03.224Z,969.42
2023-01-13T09:40:03.300Z,969.42
2023-01-13T09:41:03.195Z,969.42
2023-01-13T09:42:03.039Z,969.48
2023-01-13T09:43:03.088Z,969.48
2023-01-13T09:44:03.170Z,969.62
2023-01-13T09:45:03.305Z,969.68
2023-01-13T09:46:03.144Z,969.62
2023-01-13T09:47:03.443Z,969.53
2023-01-13T09:48:03.350Z,969.70
2023-01-13T09:49:03.320Z,969.65
2023-01-13T09:50:03.469Z,969.73
2023-01-13T09:51:03.346Z,969.68
2023-01-13T09:52:03.289Z,969.73
2023-01-13T09:53:03.231Z,969.79
2023-01-13T09:54:03.255Z,969.84
2023-01-13T09:55:03.353Z,969.93
2023-01-13T09:56:03.126Z,970.06
2023-01-13T09:57:03.138Z,969.73
2023-01-13T09:58:03.136Z,970.06
2023-01-13T09:59:03.168Z,969.87
2023-01-13T10:00:03.294Z,969.90
2023-01-13T10:01:03.214Z,969.84
2023-01-13T10:02:03.233Z,969.84
2023-01-13T10:03:03.386Z,970.03
2023-01-13T10:04:03.171Z,969.93
2023-01-13T10:05:03.217Z,969.84
2023-01-13T10:06:03.607Z,969.84
2023-01-13T10:07:03.617Z,969.84
2023-01-13T10:08:03.484Z,969.84
2023-01-13T10:09:03.432Z,969.81
2023-01-13T10:10:03.577Z,969.76
2023-01-13T10:11:03.491Z,969.81
2023-01-13T10:12:03.525Z,970.06
2023-01-13T10:13:03.564Z,969.90
2023-01-13T10:14:03.486Z,969.79
2023-01-13T10:15:03.407Z,969.90
2023-01-13T10:16:03.685Z,969.90
2023-01-13T10:17:03.405Z,969.90
2023-01-13T10:18:03.309Z,970.00
2023-01-13T10:19:03.191Z,970.00
2023-01-13T10:20:03.217Z,970.06
2023-01-13T10:21:03.108Z,969.98
2023-01-13T10:22:03.027Z,969.87
2023-01-13T10:23:03.043Z,969.90
2023-01-13T10:24:03.024Z,969.90
2023-01-13T10:25:03.036Z,969.87
2023-01-13T10:26:03.026Z,969.87
2023-01-13T10:27:03.877Z,970.03
2023-01-13T10:28:03.942Z,969.84
2023-01-13T10:29:03.919Z,969.98
2023-01-13T10:30:03.850Z,969.84
2023-01-13T10:31:03.847Z,970.06
2023-01-13T10:32:03.695Z,970.06
2023-01-13T10:33:03.785Z,970.00
2023-01-13T10:34:03.673Z,970.06
2023-01-13T10:35:03.775Z,969.92
2023-01-13T10:36:03.712Z,969.89
2023-01-13T10:37:03.659Z,969.84
2023-01-13T10:38:03.696Z,969.87
2023-01-13T10:39:03.508Z,969.84
2023-01-13T10:40:03.504Z,969.89
2023-01-13T10:41:03.449Z,969.81
2023-01-13T10:42:03.365Z,969.83
2023-01-13T10:43:03.425Z,969.83
2023-01-13T10:44:03.372Z,969.83
2023-01-13T10:45:03.475Z,969.69
2023-01-13T10:46:03.401Z,969.80
2023-01-13T10:47:03.397Z,969.75
2023-01-13T10:48:03.338Z,969.80
2023-01-13T10:49:03.201Z,969.86
2023-01-13T10:50:03.349Z,969.99
2023-01-13T10:51:03.321Z,969.86
2023-01-13T10:52:03.366Z,969.72
2023-01-13T10:53:03.344Z,970.02
2023-01-13T10:54:03.366Z,969.96
2023-01-13T10:55:03.345Z,969.88
2023-01-13T10:56:03.130Z,969.96
2023-01-13T10:57:03.107Z,969.85
2023-01-13T10:58:03.072Z,969.80
2023-01-13T10:59:03.112Z,969.88
2023-01-13T11:00:03.138Z,969.77
2023-01-13T11:01:03.222Z,969.79
2023-01-13T11:03:03.845Z,969.85
2023-01-13T11:04:03.836Z,969.73
2023-01-13T11:05:04.095Z,969.90
2023-01-13T11:06:03.849Z,969.78
2023-01-13T11:07:03.905Z,969.84
2023-01-13T11:08:03.702Z,969.86
2023-01-13T11:09:03.714Z,969.72
2023-01-13T11:10:03.334Z,969.89
2023-01-13T11:11:03.240Z,969.83
2023-01-13T11:12:03.263Z,969.89
2023-01-13T11:13:03.175Z,970.05
2023-01-13T11:14:03.161Z,969.96
2023-01-13T11:15:02.978Z,970.07
2023-01-13T11:16:02.989Z,970.02
2023-01-13T11:17:02.940Z,969.92
2023-01-13T11:18:03.001Z,970.16
2023-01-13T11:19:03.122Z,970.11
2023-01-13T11:20:03.891Z,970.22
2023-01-13T11:21:03.866Z,970.13
2023-01-13T11:22:03.015Z,970.19
2023-01-13T11:23:02.996Z,970.22
2023-01-13T11:24:02.928Z,970.30
2023-01-13T11:25:03.055Z,970.30
2023-01-13T11:26:03.890Z,970.22
2023-01-13T11:27:03.832Z,970.19
2023-01-13T11:28:03.738Z,970.22
2023-01-13T11:29:03.770Z,970.30
2023-01-13T11:30:03.808Z,970.42
2023-01-13T11:31:03.803Z,970.36
2023-01-13T11:32:03.745Z,970.36
2023-01-13T11:33:03.633Z,970.44
2023-01-13T11:34:03.666Z,970.42
2023-01-13T11:35:03.631Z,970.36
2023-01-13T11:36:03.585Z,970.47
2023-01-13T11:37:03.570Z,970.42
2023-01-13T11:38:03.573Z,970.42
2023-01-13T11:39:03.525Z,970.25
2023-01-13T11:40:03.438Z,970.34
2023-01-13T11:41:03.348Z,970.42
2023-01-13T11:42:03.342Z,970.34
2023-01-13T11:43:03.266Z,970.29
2023-01-13T11:44:03.208Z,970.32
2023-01-13T11:45:03.360Z,970.23
2023-01-13T11:46:03.405Z,970.32
2023-01-13T11:47:03.363Z,970.24
2023-01-13T11:48:03.233Z,970.24
2023-01-13T11:49:03.318Z,970.18
2023-01-13T11:50:03.211Z,970.18
2023-01-13T11:51:03.145Z,970.18
2023-01-13T11:52:03.421Z,970.04
2023-01-13T11:53:03.424Z,970.09
2023-01-13T11:54:03.367Z,970.06
2023-01-13T11:55:03.383Z,970.09
2023-01-13T11:56:03.303Z,970.12
2023-01-13T11:57:03.299Z,970.06
2023-01-13T11:58:03.365Z,970.03
2023-01-13T11:59:03.241Z,969.97
2023-01-13T12:00:03.284Z,969.97
2023-01-13T12:01:03.320Z,969.97
2023-01-13T12:02:03.098Z,970.08
2023-01-13T12:03:03.130Z,970.08
2023-01-13T12:04:03.850Z,970.05
2023-01-13T12:05:02.981Z,970.05
2023-01-13T12:06:03.862Z,969.86
2023-01-13T12:07:03.857Z,970.05
2023-01-13T12:08:03.892Z,969.91
2023-01-13T12:09:03.842Z,970.13
2023-01-13T12:10:05.134Z,970.04
2023-01-13T12:11:03.679Z,970.13
2023-01-13T12:12:03.661Z,970.07
2023-01-13T12:13:03.675Z,969.98
2023-01-13T12:14:03.675Z,969.87
2023-01-13T12:15:03.721Z,969.97
2023-01-13T12:16:03.599Z,970.00
2023-01-13T12:17:03.666Z,969.89
2023-01-13T12:18:03.660Z,970.08
2023-01-13T12:19:03.669Z,969.97
2023-01-13T12:20:03.632Z,970.05
2023-01-13T12:21:03.578Z,970.02
2023-01-13T12:22:03.491Z,970.18
2023-01-13T12:23:03.519Z,970.21
2023-01-13T12:24:03.414Z,970.18
2023-01-13T12:25:03.400Z,970.29
2023-01-13T12:26:03.370Z,970.26
2023-01-13T12:27:03.289Z,970.23
2023-01-13T12:28:03.299Z,970.32
2023-01-13T12:29:03.537Z,970.23